createdAt,value
2022-11-17T00:02:47.053Z,81.60
2022-11-17T00:06:49.823Z,81.70
2022-11-17T00:10:52.561Z,81.80
2022-11-17T00:14:55.208Z,81.70
2022-11-17T00:19:16.226Z,81.70
2022-11-17T00:23:18.929Z,81.80
2022-11-17T00:27:21.666Z,81.80
2022-11-17T00:31:44.610Z,81.70
2022-11-17T00:35:52.674Z,81.70
2022-11-17T00:40:00.544Z,81.90
2022-11-17T00:44:04.288Z,81.80
2022-11-17T00:48:07.038Z,81.90
2022-11-17T00:52:10.214Z,82.00
2022-11-17T00:56:13.191Z,82.10
2022-11-17T01:00:16.437Z,82.00
2022-11-17T01:04:19.397Z,82.10
2022-11-17T01:08:22.275Z,82.10
2022-11-17T01:12:24.961Z,82.00
2022-11-17T01:16:29.266Z,82.00
2022-11-17T01:20:33.129Z,82.00
2022-11-17T01:24:35.806Z,82.00
2022-11-17T01:28:39.466Z,82.00
2022-11-17T01:32:42.297Z,82.10
2022-11-17T01:37:04.082Z,82.00
2022-11-17T01:41:12.173Z,82.00
2022-11-17T01:45:21.612Z,82.10
2022-11-17T01:49:29.056Z,82.30
2022-11-17T01:53:35.368Z,82.10
2022-11-17T01:57:46.835Z,82.20
2022-11-17T02:01:56.237Z,82.30
2022-11-17T02:06:18.785Z,82.30
2022-11-17T02:10:21.979Z,82.30
2022-11-17T02:14:24.769Z,82.30
2022-11-17T02:18:27.565Z,82.40
2022-11-17T02:23:01.565Z,82.40
2022-11-17T02:27:30.853Z,82.70
2022-11-17T02:31:58.220Z,82.80
2022-11-17T02:36:17.338Z,83.00
2022-11-17T02:40:43.907Z,82.90
2022-11-17T02:44:57.849Z,82.90
2022-11-17T02:49:07.285Z,82.70
2022-11-17T02:53:11.169Z,83.00
2022-11-17T02:57:34.946Z,83.20
2022-11-17T03:01:37.690Z,83.10
2022-11-17T03:06:01.863Z,83.00
2022-11-17T03:10:37.764Z,83.00
2022-11-17T03:14:55.452Z,83.20
2022-11-17T03:19:01.014Z,83.30
2022-11-17T03:23:14.898Z,83.40
2022-11-17T03:27:25.475Z,83.50
2022-11-17T03:31:30.133Z,83.80
2022-11-17T03:35:37.454Z,84.90
2022-11-17T03:39:53.903Z,85.40
2022-11-17T03:43:58.418Z,85.10
2022-11-17T03:48:11.369Z,84.80
2022-11-17T03:52:14.156Z,85.00
2022-11-17T03:56:31.711Z,84.70
2022-11-17T04:00:36.386Z,84.50
2022-11-17T04:04:57.532Z,84.10
2022-11-17T04:09:00.329Z,83.10
2022-11-17T04:13:21.497Z,83.00
2022-11-17T04:17:24.180Z,83.60
2022-11-17T04:21:27.127Z,83.40
2022-11-17T04:25:48.353Z,82.60
2022-11-17T04:29:51.058Z,82.60
2022-11-17T04:33:56.157Z,83.30
2022-11-17T04:37:58.841Z,83.40
2022-11-17T04:42:04.956Z,83.20
2022-11-17T04:46:07.675Z,83.10
2022-11-17T04:50:10.528Z,82.80
2022-11-17T04:54:15.736Z,82.30
2022-11-17T04:58:18.578Z,82.10
2022-11-17T05:02:21.344Z,82.00
2022-11-17T05:06:29.264Z,82.00
2022-11-17T05:10:50.721Z,82.10
2022-11-17T05:14:53.468Z,82.10
2022-11-17T05:18:56.158Z,82.30
2022-11-17T05:23:17.236Z,82.40
2022-11-17T05:27:21.168Z,82.30
2022-11-17T05:31:24.759Z,82.20
2022-11-17T05:35:27.459Z,82.30
2022-11-17T05:39:30.505Z,82.30
2022-11-17T05:43:34.114Z,82.40
2022-11-17T05:47:37.055Z,82.50
2022-11-17T05:51:39.788Z,82.50
2022-11-17T05:55:42.479Z,82.60
2022-11-17T05:59:57.362Z,82.50
2022-11-17T06:04:03.745Z,82.50
2022-11-17T06:08:07.790Z,82.50
2022-11-17T06:12:12.108Z,82.50
2022-11-17T06:16:17.849Z,82.60
2022-11-17T06:20:26.354Z,82.70
2022-11-17T06:24:33.356Z,82.60
2022-11-17T06:28:39.252Z,82.80
2022-11-17T06:32:43.923Z,82.80
2022-11-17T06:36:46.729Z,82.70
2022-11-17T06:40:49.458Z,82.60
2022-11-17T06:44:52.556Z,82.50
2022-11-17T06:49:06.422Z,82.50
2022-11-17T06:53:11.151Z,82.70
2022-11-17T06:57:13.977Z,82.70
2022-11-17T07:01:16.975Z,82.80
2022-11-17T07:05:20.148Z,82.70
2022-11-17T07:09:22.894Z,82.80
2022-11-17T07:13:25.735Z,82.80
2022-11-17T07:17:31.793Z,83.00
2022-11-17T07:21:34.588Z,82.90
2022-11-17T07:25:37.390Z,82.90
2022-11-17T07:29:41.127Z,82.80
2022-11-17T07:33:44.110Z,82.70
2022-11-17T07:37:46.915Z,82.70
2022-11-17T07:41:49.671Z,82.80
2022-11-17T07:45:52.462Z,82.90
2022-11-17T07:49:55.504Z,83.00
2022-11-17T07:53:58.353Z,82.90
2022-11-17T07:58:02.450Z,82.90
2022-11-17T08:02:05.222Z,83.00
2022-11-17T08:06:09.796Z,83.10
2022-11-17T08:10:14.232Z,83.20
2022-11-17T08:14:16.989Z,83.10
2022-11-17T08:18:19.783Z,83.10
2022-11-17T08:22:22.667Z,83.10
2022-11-17T08:26:25.585Z,83.20
2022-11-17T08:30:28.692Z,83.10
2022-11-17T08:34:31.438Z,83.10
2022-11-17T08:38:34.972Z,83.10
2022-11-17T08:42:38.428Z,83.30
2022-11-17T08:46:42.234Z,83.50
2022-11-17T08:50:45.115Z,83.20
2022-11-17T08:54:47.957Z,82.80
2022-11-17T08:58:50.740Z,82.60
2022-11-17T09:02:53.505Z,82.30
2022-11-17T09:06:56.350Z,82.20
2022-11-17T09:11:03.908Z,81.90
2022-11-17T09:15:07.209Z,81.50
2022-11-17T09:19:10.048Z,81.10
2022-11-17T09:23:12.843Z,81.00
2022-11-17T09:27:15.558Z,80.20
2022-11-17T09:31:20.759Z,79.30
2022-11-17T09:35:23.608Z,78.40
2022-11-17T09:39:26.318Z,77.80
2022-11-17T09:43:33.865Z,77.50
2022-11-17T09:47:40.775Z,76.40
2022-11-17T09:51:45.256Z,76.30
2022-11-17T09:56:11.551Z,76.30
2022-11-17T10:00:15.852Z,76.00
2022-11-17T10:04:18.710Z,76.00
2022-11-17T10:08:32.891Z,75.10
2022-11-17T10:12:42.530Z,74.50
2022-11-17T10:16:52.823Z,73.30
2022-11-17T10:20:55.569Z,72.90
2022-11-17T10:24:58.802Z,72.40
2022-11-17T10:29:08.945Z,72.40
2022-11-17T10:33:13.699Z,71.90
2022-11-17T10:37:19.186Z,72.00
2022-11-17T10:41:31.525Z,71.30
2022-11-17T10:45:34.927Z,71.40
2022-11-17T10:49:41.542Z,71.20
2022-11-17T10:53:46.464Z,71.20
2022-11-17T10:58:02.407Z,71.10
2022-11-17T11:02:31.856Z,70.10
2022-11-17T11:06:35.723Z,70.30
2022-11-17T11:10:38.457Z,68.90
2022-11-17T11:14:46.628Z,68.40
2022-11-17T11:18:51.898Z,69.10
2022-11-17T11:23:03.061Z,69.00
2022-11-17T11:27:40.765Z,69.50
2022-11-17T11:32:01.506Z,69.70
2022-11-17T11:36:28.985Z,70.30
2022-11-17T11:40:40.346Z,70.30
2022-11-17T11:45:16.443Z,70.50
2022-11-17T11:49:28.410Z,70.60
2022-11-17T11:53:33.530Z,70.70
2022-11-17T11:57:40.216Z,70.70
2022-11-17T12:01:42.804Z,70.80
2022-11-17T12:06:36.557Z,70.80
2022-11-17T12:10:54.455Z,70.70
2022-11-17T12:15:09.395Z,70.70
2022-11-17T12:19:57.680Z,70.60
2022-11-17T12:24:09.613Z,70.20
2022-11-17T12:28:26.564Z,70.20
2022-11-17T12:32:44.714Z,70.30
2022-11-17T12:37:29.524Z,70.20
2022-11-17T12:42:03.811Z,70.10
2022-11-17T12:46:26.831Z,69.80
2022-11-17T12:50:38.504Z,69.90
2022-11-17T12:55:12.009Z,69.70
2022-11-17T12:59:26.457Z,68.90
2022-11-17T13:03:57.730Z,68.60
2022-11-17T13:08:23.836Z,68.20
2022-11-17T13:12:29.080Z,68.20
2022-11-17T13:16:31.953Z,68.00
2022-11-17T13:20:34.865Z,67.80
2022-11-17T13:24:39.538Z,67.10
2022-11-17T13:28:44.005Z,66.90
2022-11-17T13:32:46.963Z,67.00
2022-11-17T13:36:58.168Z,66.80
2022-11-17T13:41:03.178Z,66.90
2022-11-17T13:45:07.261Z,67.40
2022-11-17T13:49:32.041Z,67.50
2022-11-17T13:53:34.962Z,67.70
2022-11-17T13:57:38.024Z,67.40
2022-11-17T14:01:40.846Z,66.30
2022-11-17T14:05:57.117Z,66.20
2022-11-17T14:10:20.145Z,65.00
2022-11-17T14:14:39.422Z,65.20
2022-11-17T14:18:42.171Z,65.70
2022-11-17T14:23:03.190Z,65.70
2022-11-17T14:27:15.795Z,65.20
2022-11-17T14:31:18.824Z,64.70
2022-11-17T14:35:21.536Z,64.50
2022-11-17T14:39:24.425Z,64.70
2022-11-17T14:43:27.106Z,64.90
2022-11-17T14:47:29.824Z,65.20
2022-11-17T14:51:33.103Z,65.40
2022-11-17T14:55:35.794Z,65.50
2022-11-17T14:59:38.545Z,66.00
2022-11-17T15:03:41.504Z,66.30
2022-11-17T15:07:44.458Z,66.70
2022-11-17T15:11:47.863Z,67.00
2022-11-17T15:15:50.890Z,67.00
2022-11-17T15:19:54.597Z,67.10
2022-11-17T15:23:57.367Z,67.30
2022-11-17T15:28:01.627Z,67.50
2022-11-17T15:32:04.711Z,67.90
2022-11-17T15:36:09.901Z,68.10
2022-11-17T15:40:17.947Z,68.50
2022-11-17T15:44:22.029Z,68.80
2022-11-17T15:48:24.839Z,69.20
2022-11-17T15:52:48.684Z,69.70
2022-11-17T15:56:51.809Z,70.00
2022-11-17T16:00:54.622Z,70.40
2022-11-17T16:04:57.913Z,70.70
2022-11-17T16:09:00.881Z,71.00
2022-11-17T16:13:03.625Z,71.30
2022-11-17T16:17:06.362Z,71.40
2022-11-17T16:21:12.737Z,71.60
2022-11-17T16:25:15.443Z,71.90
2022-11-17T16:29:18.557Z,72.20
2022-11-17T16:33:21.530Z,72.60
2022-11-17T16:37:24.839Z,72.90
2022-11-17T16:41:31.125Z,73.30
2022-11-17T16:45:44.252Z,73.60
2022-11-17T16:49:51.638Z,73.90
2022-11-17T16:54:03.524Z,74.20
2022-11-17T16:58:07.425Z,74.60
2022-11-17T17:02:14.849Z,75.10
2022-11-17T17:06:19.064Z,75.50
2022-11-17T17:10:22.181Z,75.70
2022-11-17T17:14:25.089Z,76.00
2022-11-17T17:18:28.125Z,76.20
2022-11-17T17:22:34.110Z,76.30
2022-11-17T17:26:38.093Z,76.60
2022-11-17T17:30:41.859Z,76.80
2022-11-17T17:34:44.650Z,77.10
2022-11-17T17:38:53.621Z,77.30
2022-11-17T17:42:58.115Z,77.50
2022-11-17T17:47:00.934Z,77.50
2022-11-17T17:51:18.216Z,77.60
2022-11-17T17:55:21.462Z,77.60
2022-11-17T17:59:24.217Z,77.30
2022-11-17T18:03:27.074Z,77.20
2022-11-17T18:07:31.074Z,77.00
2022-11-17T18:11:34.301Z,76.90
2022-11-17T18:15:40.407Z,76.70
2022-11-17T18:19:43.771Z,76.50
2022-11-17T18:23:46.899Z,76.40
2022-11-17T18:27:52.093Z,76.40
2022-11-17T18:31:54.893Z,76.40
2022-11-17T18:36:01.996Z,76.20
2022-11-17T18:40:05.899Z,76.30
2022-11-17T18:44:11.818Z,76.40
2022-11-17T18:48:14.681Z,76.40
2022-11-17T18:52:17.411Z,76.30
2022-11-17T18:56:22.676Z,76.10
2022-11-17T19:00:25.537Z,75.90
2022-11-17T19:04:29.603Z,75.90
2022-11-17T19:08:34.128Z,75.80
2022-11-17T19:12:37.574Z,75.90
2022-11-17T19:16:44.793Z,75.80
2022-11-17T19:20:49.368Z,75.60
2022-11-17T19:25:16.934Z,75.20
2022-11-17T19:29:21.227Z,74.70
2022-11-17T19:33:24.275Z,74.50
2022-11-17T19:37:27.402Z,74.30
2022-11-17T19:41:35.808Z,73.90
2022-11-17T19:45:38.795Z,73.30
2022-11-17T19:49:41.702Z,73.30
2022-11-17T19:53:44.856Z,73.10
2022-11-17T19:57:47.751Z,72.60
2022-11-17T20:01:50.625Z,72.30
2022-11-17T20:05:59.220Z,72.10
2022-11-17T20:10:02.023Z,71.90
2022-11-17T20:14:05.286Z,71.50
2022-11-17T20:18:08.431Z,71.40
2022-11-17T20:22:11.309Z,71.30
2022-11-17T20:26:20.350Z,71.50
2022-11-17T20:30:23.265Z,71.60
2022-11-17T20:34:26.091Z,71.90
2022-11-17T20:38:29.251Z,72.20
2022-11-17T20:42:32.040Z,72.70
2022-11-17T20:46:35.002Z,73.00
2022-11-17T20:50:37.765Z,73.30
2022-11-17T20:54:41.271Z,73.50
2022-11-17T20:58:44.773Z,73.80
2022-11-17T21:02:47.625Z,74.10
2022-11-17T21:06:50.519Z,74.30
2022-11-17T21:10:58.051Z,74.30
2022-11-17T21:15:00.933Z,74.40
2022-11-17T21:19:04.190Z,74.60
2022-11-17T21:23:07.199Z,74.60
2022-11-17T21:27:10.093Z,74.70
2022-11-17T21:31:15.287Z,74.80
2022-11-17T21:35:18.192Z,74.90
2022-11-17T21:39:21.349Z,75.20
2022-11-17T21:43:24.155Z,75.20
2022-11-17T21:47:26.990Z,75.20
2022-11-17T21:51:38.111Z,75.30
2022-11-17T21:55:40.943Z,75.50
2022-11-17T21:59:43.845Z,75.70
2022-11-17T22:03:46.677Z,75.80
2022-11-17T22:07:49.794Z,75.90
2022-11-17T22:11:52.764Z,76.00
2022-11-17T22:15:55.723Z,76.10
2022-11-17T22:19:59.320Z,76.20
2022-11-17T22:24:03.369Z,76.30
2022-11-17T22:28:06.328Z,76.30
2022-11-17T22:32:09.333Z,76.40
2022-11-17T22:36:12.161Z,76.10
2022-11-17T22:40:15.330Z,76.00
2022-11-17T22:44:18.248Z,76.10
2022-11-17T22:48:21.494Z,76.10
2022-11-17T22:52:24.628Z,76.20
2022-11-17T22:56:27.423Z,76.30
2022-11-17T23:00:31.020Z,76.50
2022-11-17T23:04:34.042Z,76.70
2022-11-17T23:08:36.803Z,77.20
2022-11-17T23:12:39.923Z,77.50
2022-11-17T23:16:42.928Z,78.00
2022-11-17T23:20:45.743Z,78.30
2022-11-17T23:24:48.510Z,78.50
2022-11-17T23:28:51.343Z,78.80
2022-11-17T23:32:57.384Z,78.90
2022-11-17T23:37:03.731Z,79.20
2022-11-17T23:41:07.833Z,79.30
2022-11-17T23:45:12.306Z,79.10
2022-11-17T23:49:15.435Z,79.30
2022-11-17T23:53:18.521Z,79.50
2022-11-17T23:57:21.548Z,79.60
